Oakfield, Tennessee
Current Conditions -  °F | °C
As of 11:53 AM on Tuesday 21 Oct 2014 (Local Time) from KMKL Reporting Station
Clear Clear  
Wind Chill: 72°   Ceiling: Unl
Heat Index: 72°   Visibility: 10mi
Dew Point: 45°   Wind: 10mph
Humidity: 38%   Direction: 30°NNE
Pressure: 30.1"   Gusts: NA
Location:  35.72°N, 88.8°W
Report Text: KMKL 211653Z 03009KT 10SM CLR 22/07 A3010 RMK AO2 SLP191 T02220072
Loading
Personal Weather Stations






























Interactive Weather Map New forecast layout! Learn more

10-Day Weather Forecast

Advertisements
Track Severe Weather on mobile